createdAt,value
2023-02-01T00:01:27.822Z,82.90
2023-02-01T00:03:55.758Z,74.47
2023-02-01T00:06:24.146Z,81.18
2023-02-01T00:08:55.977Z,71.55
2023-02-01T00:11:25.405Z,81.68
2023-02-01T00:13:53.640Z,77.85
2023-02-01T00:16:25.294Z,82.40
2023-02-01T00:18:59.413Z,83.45
2023-02-01T00:21:28.584Z,76.03
2023-02-01T00:23:56.843Z,82.78
2023-02-01T00:26:46.585Z,83.00
2023-02-01T00:29:18.178Z,78.90
2023-02-01T00:31:47.231Z,82.00
2023-02-01T00:34:17.689Z,76.32
2023-02-01T00:36:46.306Z,85.32
2023-02-01T00:39:14.203Z,92.75
2023-02-01T00:41:42.404Z,76.70
2023-02-01T00:44:10.531Z,79.78
2023-02-01T00:46:40.020Z,81.60
2023-02-01T00:49:09.403Z,80.70
2023-02-01T00:51:37.730Z,75.53
2023-02-01T00:54:05.644Z,75.50
2023-02-01T00:56:33.946Z,75.88
2023-02-01T00:59:01.844Z,76.30
2023-02-01T01:01:30.518Z,68.57
2023-02-01T01:04:00.778Z,73.88
2023-02-01T01:06:31.657Z,84.72
2023-02-01T01:09:02.274Z,75.88
2023-02-01T01:11:33.321Z,76.60
2023-02-01T01:14:01.476Z,74.50
2023-02-01T01:16:32.677Z,74.65
2023-02-01T01:19:01.227Z,87.35
2023-02-01T01:21:30.265Z,71.07
2023-02-01T01:23:58.305Z,74.75
2023-02-01T01:26:29.308Z,71.90
2023-02-01T01:28:59.666Z,97.68
2023-02-01T01:31:28.303Z,81.25
2023-02-01T01:33:58.820Z,76.10
2023-02-01T01:36:28.251Z,83.07
2023-02-01T01:38:56.209Z,81.80
2023-02-01T01:41:27.576Z,79.78
2023-02-01T01:44:02.342Z,72.10
2023-02-01T01:49:25.291Z,66.68
2023-02-01T01:52:00.786Z,77.88
2023-02-01T01:54:42.346Z,72.95
2023-02-01T01:57:15.943Z,67.70
2023-02-01T01:59:48.344Z,67.03
2023-02-01T02:02:17.826Z,64.03
2023-02-01T02:04:47.437Z,71.53
2023-02-01T02:07:27.756Z,63.72
2023-02-01T02:10:00.857Z,68.05
2023-02-01T02:12:30.130Z,66.20
2023-02-01T02:14:58.131Z,68.60
2023-02-01T02:17:57.686Z,69.45
2023-02-01T02:20:50.422Z,71.80
2023-02-01T02:23:24.807Z,78.22
2023-02-01T02:26:10.753Z,61.85
2023-02-01T02:29:08.991Z,58.90
2023-02-01T02:32:16.664Z,65.65
2023-02-01T02:34:53.570Z,61.85
2023-02-01T02:37:39.562Z,54.60
2023-02-01T02:40:17.513Z,55.15
2023-02-01T02:43:16.253Z,53.95
2023-02-01T02:46:11.022Z,61.40
2023-02-01T02:48:43.452Z,59.13
2023-02-01T02:51:33.288Z,53.72
2023-02-01T02:54:26.875Z,57.47
2023-02-01T02:57:16.826Z,75.47
2023-02-01T03:00:07.120Z,55.28
2023-02-01T03:02:54.714Z,60.83
2023-02-01T03:05:22.916Z,58.33
2023-02-01T03:11:11.854Z,64.47
2023-02-01T03:13:51.181Z,80.63
2023-02-01T03:16:33.186Z,67.05
2023-02-01T03:19:25.319Z,65.20
2023-02-01T03:22:16.675Z,65.45
2023-02-01T03:24:53.057Z,75.53
2023-02-01T03:27:37.289Z,59.47
2023-02-01T03:30:09.336Z,59.53
2023-02-01T03:33:00.430Z,67.57
2023-02-01T03:36:00.200Z,65.97
2023-02-01T03:38:31.775Z,71.70
2023-02-01T03:41:17.312Z,61.42
2023-02-01T03:44:04.296Z,62.58
2023-02-01T03:46:38.976Z,62.67
2023-02-01T03:49:11.879Z,65.47
2023-02-01T03:51:42.323Z,80.17
2023-02-01T03:54:16.350Z,66.95
2023-02-01T03:56:47.529Z,65.57
2023-02-01T03:59:16.488Z,63.03
2023-02-01T04:01:44.434Z,62.55
2023-02-01T04:04:21.196Z,56.08
2023-02-01T04:06:53.318Z,59.70
2023-02-01T04:09:22.759Z,59.80
2023-02-01T04:11:50.809Z,63.83
2023-02-01T04:14:19.227Z,57.58
2023-02-01T04:16:47.360Z,67.60
2023-02-01T04:19:16.317Z,64.30
2023-02-01T04:21:44.435Z,79.63
2023-02-01T04:24:12.940Z,61.78
2023-02-01T04:26:41.023Z,75.25
2023-02-01T04:29:11.395Z,72.88
2023-02-01T04:31:39.622Z,64.35
2023-02-01T04:34:08.209Z,69.95
2023-02-01T04:36:36.298Z,68.35
2023-02-01T04:39:04.785Z,72.40
2023-02-01T04:41:32.788Z,66.00
2023-02-01T04:44:01.161Z,61.40
2023-02-01T04:46:29.154Z,71.03
2023-02-01T04:48:58.653Z,68.43
2023-02-01T04:51:26.627Z,61.17
2023-02-01T04:53:57.185Z,67.13
2023-02-01T04:56:25.138Z,68.07
2023-02-01T04:58:54.269Z,64.93
2023-02-01T05:01:22.405Z,67.70
2023-02-01T05:03:50.747Z,60.28
2023-02-01T05:06:18.806Z,80.30
2023-02-01T05:08:47.170Z,79.95
2023-02-01T05:11:38.410Z,58.58
2023-02-01T05:14:08.253Z,68.07
2023-02-01T05:16:36.647Z,65.50
2023-02-01T05:19:04.988Z,64.05
2023-02-01T05:21:32.948Z,66.82
2023-02-01T05:24:21.780Z,62.17
2023-02-01T05:26:50.773Z,65.55
2023-02-01T05:29:19.598Z,70.57
2023-02-01T05:31:48.445Z,70.60
2023-02-01T05:34:17.177Z,67.65
2023-02-01T05:36:45.294Z,60.95
2023-02-01T05:39:15.157Z,73.57
2023-02-01T05:41:43.188Z,68.63
2023-02-01T05:44:12.308Z,65.10
2023-02-01T05:46:40.395Z,70.10
2023-02-01T05:49:09.477Z,65.13
2023-02-01T05:51:37.406Z,62.28
2023-02-01T05:54:05.847Z,66.25
2023-02-01T05:56:33.786Z,65.43
2023-02-01T05:59:05.137Z,66.28
2023-02-01T06:01:33.106Z,77.25
2023-02-01T06:04:01.404Z,87.18
2023-02-01T06:06:29.671Z,74.05
2023-02-01T06:08:58.199Z,65.15
2023-02-01T06:11:33.500Z,64.65
2023-02-01T06:14:02.146Z,67.50
2023-02-01T06:16:30.185Z,66.13
2023-02-01T06:18:59.382Z,75.10
2023-02-01T06:21:27.354Z,60.05
2023-02-01T06:23:56.050Z,52.00
2023-02-01T06:26:24.144Z,57.08
2023-02-01T06:28:52.583Z,56.97
2023-02-01T06:31:20.678Z,108.93
2023-02-01T06:33:50.757Z,63.67
2023-02-01T06:36:19.949Z,52.63
2023-02-01T06:38:49.019Z,61.10
2023-02-01T06:41:17.839Z,58.85
2023-02-01T06:43:47.540Z,63.42
2023-02-01T06:46:16.173Z,54.63
2023-02-01T06:48:47.218Z,58.30
2023-02-01T06:51:33.281Z,61.65
2023-02-01T06:54:02.154Z,57.00
2023-02-01T06:56:30.351Z,59.13
2023-02-01T06:58:58.709Z,58.13
2023-02-01T07:01:26.827Z,62.97
2023-02-01T07:03:55.237Z,54.05
2023-02-01T07:06:23.855Z,49.75
2023-02-01T07:08:52.197Z,70.75
2023-02-01T07:11:20.331Z,70.18
2023-02-01T07:13:49.336Z,48.15
2023-02-01T07:16:20.308Z,52.22
2023-02-01T07:18:49.284Z,51.55
2023-02-01T07:21:17.168Z,55.55
2023-02-01T07:23:46.816Z,70.68
2023-02-01T07:26:16.132Z,42.20
2023-02-01T07:28:44.427Z,52.15
2023-02-01T07:31:20.068Z,50.20
2023-02-01T07:33:49.828Z,56.10
2023-02-01T07:36:19.063Z,53.42
2023-02-01T07:38:53.690Z,54.70
2023-02-01T07:41:23.327Z,61.70
2023-02-01T07:43:54.453Z,59.17
2023-02-01T07:46:22.750Z,63.63
2023-02-01T07:48:51.076Z,60.78
2023-02-01T07:51:19.307Z,45.75
2023-02-01T07:53:47.783Z,49.13
2023-02-01T07:56:18.700Z,49.65
2023-02-01T07:59:01.109Z,46.75
2023-02-01T08:01:30.506Z,43.42
2023-02-01T08:04:00.557Z,41.28
2023-02-01T08:06:32.546Z,53.05
2023-02-01T08:09:01.012Z,56.38
2023-02-01T08:11:29.170Z,51.30
2023-02-01T08:13:58.949Z,47.50
2023-02-01T08:16:27.144Z,53.78
2023-02-01T08:18:55.977Z,57.05
2023-02-01T08:21:30.308Z,55.22
2023-02-01T08:23:59.055Z,56.38
2023-02-01T08:26:27.705Z,51.60
2023-02-01T08:28:59.236Z,53.40
2023-02-01T08:31:29.914Z,67.03
2023-02-01T08:34:01.054Z,64.65
2023-02-01T08:36:31.790Z,56.15
2023-02-01T08:39:01.802Z,67.40
2023-02-01T08:41:31.294Z,57.20
2023-02-01T08:43:59.657Z,58.22
2023-02-01T08:46:28.715Z,63.25
2023-02-01T08:48:58.859Z,71.68
2023-02-01T08:51:27.172Z,71.88
2023-02-01T08:53:55.376Z,77.38
2023-02-01T08:56:23.451Z,83.03
2023-02-01T08:58:51.760Z,76.55
2023-02-01T09:01:19.882Z,86.43
2023-02-01T09:03:49.228Z,87.85
2023-02-01T09:06:17.557Z,72.47
2023-02-01T09:08:46.081Z,73.53
2023-02-01T09:11:18.499Z,74.60
2023-02-01T09:13:48.233Z,84.00
2023-02-01T09:16:16.894Z,78.72
2023-02-01T09:18:56.098Z,88.82
2023-02-01T09:21:30.647Z,98.75
2023-02-01T09:24:00.140Z,84.25
2023-02-01T09:26:32.969Z,81.82
2023-02-01T09:29:02.247Z,87.00
2023-02-01T09:31:31.726Z,83.00
2023-02-01T09:34:00.263Z,102.35
2023-02-01T09:36:30.218Z,89.80
2023-02-01T09:39:01.133Z,97.55
2023-02-01T09:41:39.109Z,109.22
2023-02-01T09:44:19.738Z,109.95
2023-02-01T09:46:48.442Z,91.05
2023-02-01T09:49:23.618Z,103.80
2023-02-01T09:51:54.445Z,110.53
2023-02-01T09:54:42.662Z,100.00
2023-02-01T09:57:39.629Z,106.65
2023-02-01T10:00:19.611Z,96.97
2023-02-01T10:02:47.737Z,95.85
2023-02-01T10:05:21.878Z,102.75
2023-02-01T10:10:41.008Z,103.40
2023-02-01T10:13:14.965Z,116.13
2023-02-01T10:16:01.572Z,111.60
2023-02-01T10:18:40.548Z,100.45
2023-02-01T10:21:27.677Z,102.88
2023-02-01T10:24:15.941Z,99.80
2023-02-01T10:27:11.767Z,107.63
2023-02-01T10:29:43.439Z,110.97
2023-02-01T10:32:16.340Z,115.55
2023-02-01T10:34:50.020Z,115.30
2023-02-01T10:37:33.100Z,112.85
2023-02-01T10:40:15.978Z,118.55
2023-02-01T10:42:45.598Z,125.20
2023-02-01T10:45:22.987Z,109.00
2023-02-01T10:47:53.811Z,111.32
2023-02-01T10:51:00.724Z,106.85
2023-02-01T10:53:44.097Z,101.40
2023-02-01T10:56:14.393Z,106.18
2023-02-01T10:58:48.137Z,110.45
2023-02-01T11:01:22.600Z,103.45
2023-02-01T11:04:05.600Z,120.00
2023-02-01T11:06:49.079Z,102.97
2023-02-01T11:09:25.915Z,107.93
2023-02-01T11:11:59.788Z,102.97
2023-02-01T11:14:36.612Z,101.72
2023-02-01T11:17:18.745Z,107.28
2023-02-01T11:20:01.133Z,118.60
2023-02-01T11:22:31.328Z,105.45
2023-02-01T11:25:02.782Z,107.57
2023-02-01T11:27:34.743Z,102.88
2023-02-01T11:30:07.289Z,122.78
2023-02-01T11:32:35.612Z,115.20
2023-02-01T11:35:07.725Z,107.00
2023-02-01T11:37:40.971Z,109.55
2023-02-01T11:40:18.632Z,110.20
2023-02-01T11:43:01.693Z,126.03
2023-02-01T11:45:32.264Z,108.32
2023-02-01T11:48:01.691Z,110.38
2023-02-01T11:50:53.006Z,105.45
2023-02-01T11:53:28.947Z,106.97
2023-02-01T11:56:03.277Z,113.65
2023-02-01T11:58:52.247Z,109.35
2023-02-01T12:01:43.788Z,100.55
2023-02-01T12:04:33.302Z,104.18
2023-02-01T12:07:22.641Z,112.75
2023-02-01T12:09:57.846Z,111.43
2023-02-01T12:12:32.598Z,107.25
2023-02-01T12:15:18.590Z,111.35
2023-02-01T12:18:07.719Z,106.93
2023-02-01T12:21:00.828Z,103.72
2023-02-01T12:24:06.228Z,103.38
2023-02-01T12:26:45.711Z,108.43
2023-02-01T12:29:44.600Z,106.53
2023-02-01T12:32:34.688Z,102.88
2023-02-01T12:35:21.761Z,98.70
2023-02-01T12:37:57.160Z,111.32
2023-02-01T12:40:37.436Z,99.63
2023-02-01T12:43:34.210Z,106.05
2023-02-01T12:46:14.697Z,105.38
2023-02-01T12:48:54.828Z,94.25
2023-02-01T12:51:36.441Z,104.82
2023-02-01T12:54:13.257Z,101.68
2023-02-01T12:57:04.279Z,99.50
2023-02-01T12:59:57.069Z,106.35
2023-02-01T13:03:03.941Z,99.68
2023-02-01T13:05:53.697Z,93.38
2023-02-01T13:08:47.251Z,100.68
2023-02-01T13:11:32.581Z,94.90
2023-02-01T13:14:25.652Z,103.18
2023-02-01T13:17:04.779Z,92.70
2023-02-01T13:20:00.318Z,102.93
2023-02-01T13:22:49.013Z,101.32
2023-02-01T13:25:28.771Z,92.47
2023-02-01T13:28:03.660Z,104.10
2023-02-01T13:30:55.695Z,97.78
2023-02-01T13:33:55.302Z,87.85
2023-02-01T13:36:37.250Z,97.13
2023-02-01T13:39:14.072Z,88.35
2023-02-01T13:42:17.507Z,90.75
2023-02-01T13:44:57.978Z,94.78
2023-02-01T13:47:28.764Z,90.38
2023-02-01T13:50:01.494Z,88.18
2023-02-01T13:52:46.199Z,85.10
2023-02-01T13:55:14.136Z,96.82
2023-02-01T13:57:47.731Z,95.55
2023-02-01T14:00:31.830Z,89.72
2023-02-01T14:03:03.505Z,100.07
2023-02-01T14:05:31.705Z,88.07
2023-02-01T14:08:14.792Z,100.55
2023-02-01T14:11:01.325Z,94.43
2023-02-01T14:13:31.283Z,96.45
2023-02-01T14:16:05.239Z,105.32
2023-02-01T14:18:36.501Z,93.38
2023-02-01T14:21:22.965Z,89.47
2023-02-01T14:23:55.171Z,92.50
2023-02-01T14:26:29.431Z,87.25
2023-02-01T14:29:20.040Z,93.80
2023-02-01T14:31:51.409Z,102.38
2023-02-01T14:34:28.894Z,94.85
2023-02-01T14:37:10.089Z,85.55
2023-02-01T14:39:47.928Z,87.25
2023-02-01T14:42:30.874Z,89.70
2023-02-01T14:45:24.616Z,100.32
2023-02-01T14:48:08.223Z,89.35
2023-02-01T14:50:42.040Z,102.47
2023-02-01T14:53:10.057Z,83.10
2023-02-01T14:55:44.307Z,92.90
2023-02-01T14:58:37.650Z,99.00
2023-02-01T15:01:25.324Z,95.15
2023-02-01T15:04:06.689Z,98.22
2023-02-01T15:06:51.660Z,95.13
2023-02-01T15:09:39.054Z,96.13
2023-02-01T15:12:13.472Z,92.45
2023-02-01T15:15:05.480Z,95.32
2023-02-01T15:17:35.430Z,83.93
2023-02-01T15:20:17.173Z,97.22
2023-02-01T15:23:20.012Z,82.40
2023-02-01T15:25:48.094Z,79.30
2023-02-01T15:28:18.021Z,93.78
2023-02-01T15:30:59.733Z,94.72
2023-02-01T15:33:30.333Z,89.18
2023-02-01T15:36:07.564Z,94.97
2023-02-01T15:38:41.695Z,102.30
2023-02-01T15:41:17.052Z,96.25
2023-02-01T15:43:48.391Z,106.00
2023-02-01T15:46:22.486Z,105.38
2023-02-01T15:48:54.858Z,104.25
2023-02-01T15:51:29.834Z,113.90
2023-02-01T15:54:02.654Z,101.30
2023-02-01T15:56:39.585Z,105.57
2023-02-01T15:59:18.569Z,100.32
2023-02-01T16:01:47.314Z,107.10
2023-02-01T16:04:22.823Z,113.47
2023-02-01T16:06:59.028Z,107.78
2023-02-01T16:09:40.202Z,103.07
2023-02-01T16:12:43.550Z,102.97
2023-02-01T16:15:11.851Z,107.07
2023-02-01T16:17:39.999Z,111.78
2023-02-01T16:20:08.886Z,109.15
2023-02-01T16:22:36.963Z,113.28
2023-02-01T16:25:05.566Z,108.93
2023-02-01T16:27:33.553Z,115.63
2023-02-01T16:30:01.851Z,114.03
2023-02-01T16:32:31.405Z,110.78
2023-02-01T16:34:59.951Z,109.78
2023-02-01T16:37:29.245Z,102.15
2023-02-01T16:39:57.595Z,103.45
2023-02-01T16:42:25.645Z,101.80
2023-02-01T16:44:53.923Z,104.93
2023-02-01T16:47:24.066Z,111.38
2023-02-01T16:49:53.031Z,96.60
2023-02-01T16:52:23.936Z,111.75
2023-02-01T16:54:54.033Z,109.50
2023-02-01T16:57:27.116Z,114.03
2023-02-01T16:59:55.456Z,113.22
2023-02-01T17:02:25.038Z,112.50
2023-02-01T17:04:53.444Z,122.10
2023-02-01T17:07:21.602Z,109.53
2023-02-01T17:09:49.884Z,123.18
2023-02-01T17:12:27.135Z,112.13
2023-02-01T17:14:55.725Z,119.05
2023-02-01T17:17:37.774Z,107.18
2023-02-01T17:20:07.698Z,127.00
2023-02-01T17:22:35.733Z,116.95
2023-02-01T17:25:07.267Z,122.05
2023-02-01T17:27:35.664Z,104.50
2023-02-01T17:30:04.490Z,110.15
2023-02-01T17:32:32.540Z,112.82
2023-02-01T17:35:01.256Z,128.80
2023-02-01T17:37:32.094Z,119.70
2023-02-01T17:40:01.356Z,122.85
2023-02-01T17:42:30.947Z,110.65
2023-02-01T17:45:02.750Z,112.82
2023-02-01T17:47:30.763Z,131.63
2023-02-01T17:49:59.095Z,186.75
2023-02-01T17:52:27.101Z,206.45
2023-02-01T17:54:55.499Z,167.65
2023-02-01T17:57:23.566Z,146.13
2023-02-01T17:59:51.876Z,151.48
2023-02-01T18:02:23.388Z,158.45
2023-02-01T18:04:52.248Z,153.88
2023-02-01T18:07:20.372Z,139.25
2023-02-01T18:09:48.696Z,137.45
2023-02-01T18:12:23.251Z,133.02
2023-02-01T18:14:51.751Z,147.30
2023-02-01T18:17:20.331Z,133.75
2023-02-01T18:19:48.688Z,163.88
2023-02-01T18:22:24.330Z,150.98
2023-02-01T18:24:52.851Z,137.70
2023-02-01T18:27:20.801Z,123.93
2023-02-01T18:29:49.155Z,132.40
2023-02-01T18:32:17.128Z,141.10
2023-02-01T18:34:45.465Z,133.35
2023-02-01T18:37:13.644Z,127.35
2023-02-01T18:39:42.031Z,131.70
2023-02-01T18:42:11.590Z,117.82
2023-02-01T18:44:39.951Z,130.57
2023-02-01T18:47:08.196Z,134.80
2023-02-01T18:49:37.737Z,119.65
2023-02-01T18:52:06.841Z,131.68
2023-02-01T18:54:35.199Z,129.63
2023-02-01T18:57:04.682Z,120.78
2023-02-01T18:59:35.641Z,124.53
2023-02-01T19:02:04.546Z,127.07
2023-02-01T19:04:34.732Z,119.07
2023-02-01T19:07:05.792Z,128.00
2023-02-01T19:09:36.621Z,116.28
2023-02-01T19:12:05.179Z,122.10
2023-02-01T19:14:34.921Z,119.25
2023-02-01T19:17:02.861Z,117.90
2023-02-01T19:19:31.101Z,116.07
2023-02-01T19:22:01.451Z,111.75
2023-02-01T19:24:30.392Z,131.65
2023-02-01T19:26:59.039Z,117.53
2023-02-01T19:29:27.972Z,118.55
2023-02-01T19:31:56.120Z,124.00
2023-02-01T19:34:26.037Z,113.78
2023-02-01T19:36:55.258Z,112.20
2023-02-01T19:39:25.266Z,140.90
2023-02-01T19:41:53.241Z,151.50
2023-02-01T19:44:21.903Z,139.52
2023-02-01T19:46:50.280Z,131.50
2023-02-01T19:49:18.627Z,152.32
2023-02-01T19:51:48.886Z,126.55
2023-02-01T19:54:17.628Z,110.60
2023-02-01T19:56:45.933Z,127.65
2023-02-01T19:59:15.266Z,143.23
2023-02-01T20:01:46.878Z,124.18
2023-02-01T20:04:18.073Z,113.65
2023-02-01T20:06:49.536Z,128.35
2023-02-01T20:09:22.015Z,140.00
2023-02-01T20:11:50.768Z,133.75
2023-02-01T20:14:19.037Z,152.23
2023-02-01T20:16:47.551Z,136.48
2023-02-01T20:19:16.555Z,140.38
2023-02-01T20:21:44.600Z,147.15
2023-02-01T20:24:17.098Z,151.55
2023-02-01T20:26:46.510Z,143.27
2023-02-01T20:29:19.045Z,141.50
2023-02-01T20:31:47.015Z,145.95
2023-02-01T20:34:16.528Z,137.57
2023-02-01T20:36:44.433Z,138.77
2023-02-01T20:39:15.063Z,142.68
2023-02-01T20:41:43.946Z,128.95
2023-02-01T20:44:12.497Z,137.43
2023-02-01T20:46:40.536Z,128.00
2023-02-01T20:49:08.903Z,133.95
2023-02-01T20:51:36.824Z,132.38
2023-02-01T20:54:05.133Z,119.32
2023-02-01T20:56:33.064Z,127.75
2023-02-01T20:59:04.242Z,125.88
2023-02-01T21:01:32.197Z,136.85
2023-02-01T21:04:00.640Z,126.95
2023-02-01T21:06:28.658Z,131.30
2023-02-01T21:08:59.112Z,125.93
2023-02-01T21:11:27.353Z,120.72
2023-02-01T21:13:55.551Z,129.00
2023-02-01T21:16:23.682Z,136.23
2023-02-01T21:18:55.889Z,131.40
2023-02-01T21:21:26.327Z,123.05
2023-02-01T21:23:57.150Z,118.47
2023-02-01T21:26:27.126Z,136.45
2023-02-01T21:28:56.953Z,125.47
2023-02-01T21:31:26.035Z,124.60
2023-02-01T21:33:56.722Z,151.77
2023-02-01T21:36:25.285Z,144.15
2023-02-01T21:38:55.311Z,133.95
2023-02-01T21:41:43.985Z,144.95
2023-02-01T21:44:14.878Z,148.90
2023-02-01T21:46:44.369Z,153.38
2023-02-01T21:49:15.276Z,153.27
2023-02-01T21:51:43.685Z,141.43
2023-02-01T21:54:12.378Z,177.85
2023-02-01T21:56:41.286Z,161.07
2023-02-01T21:59:13.522Z,149.40
2023-02-01T22:01:42.596Z,139.02
2023-02-01T22:04:11.476Z,143.07
2023-02-01T22:06:46.894Z,145.15
2023-02-01T22:09:23.275Z,137.48
2023-02-01T22:11:53.322Z,125.93
2023-02-01T22:14:22.627Z,133.45
2023-02-01T22:16:53.039Z,129.88
2023-02-01T22:19:22.629Z,114.47
2023-02-01T22:21:50.750Z,128.80
2023-02-01T22:24:22.995Z,121.72
2023-02-01T22:26:51.241Z,114.32
2023-02-01T22:29:23.957Z,123.22
2023-02-01T22:31:51.999Z,95.93
2023-02-01T22:34:22.496Z,100.47
2023-02-01T22:36:50.469Z,97.07
2023-02-01T22:39:18.810Z,100.00
2023-02-01T22:41:46.904Z,100.57
2023-02-01T22:44:15.395Z,112.28
2023-02-01T22:46:43.422Z,106.47
2023-02-01T22:49:11.999Z,107.65
2023-02-01T22:51:40.254Z,102.53
2023-02-01T22:54:21.673Z,97.85
2023-02-01T22:56:50.232Z,98.97
2023-02-01T22:59:18.743Z,98.72
2023-02-01T23:01:46.886Z,109.82
2023-02-01T23:04:16.096Z,104.75
2023-02-01T23:06:44.205Z,100.97
2023-02-01T23:09:19.047Z,93.07
2023-02-01T23:11:47.221Z,100.53
2023-02-01T23:14:16.776Z,109.47
2023-02-01T23:16:46.201Z,98.50
2023-02-01T23:19:14.645Z,102.15
2023-02-01T23:21:43.027Z,102.47
2023-02-01T23:24:11.441Z,95.90
2023-02-01T23:26:40.131Z,97.25
2023-02-01T23:29:16.444Z,96.03
2023-02-01T23:31:44.465Z,87.57
2023-02-01T23:34:12.901Z,96.45
2023-02-01T23:36:40.962Z,104.28
2023-02-01T23:39:09.282Z,98.30
2023-02-01T23:41:37.221Z,88.70
2023-02-01T23:44:05.832Z,96.50
2023-02-01T23:46:39.703Z,96.47
2023-02-01T23:49:09.722Z,98.28
2023-02-01T23:51:37.866Z,100.03
2023-02-01T23:54:07.901Z,96.28
2023-02-01T23:56:39.865Z,90.45
2023-02-01T23:59:14.783Z,100.55
